sensor_id;sensor_type;location;lat;lon;timestamp;temperature;humidity
32626;DHT22;19038;50.922;11.880;2022-08-20T00:01:15;21.10;78.70
32626;DHT22;19038;50.922;11.880;2022-08-20T00:06:16;21.10;78.70
32626;DHT22;19038;50.922;11.880;2022-08-20T00:11:17;21.10;79.10
32626;DHT22;19038;50.922;11.880;2022-08-20T00:16:16;21.10;79.10
32626;DHT22;19038;50.922;11.880;2022-08-20T00:21:16;21.10;79.70
32626;DHT22;19038;50.922;11.880;2022-08-20T00:26:15;21.00;80.10
32626;DHT22;19038;50.922;11.880;2022-08-20T00:31:16;21.00;79.40
32626;DHT22;19038;50.922;11.880;2022-08-20T00:36:15;21.00;79.60
32626;DHT22;19038;50.922;11.880;2022-08-20T00:41:18;21.00;79.60
32626;DHT22;19038;50.922;11.880;2022-08-20T00:46:20;21.00;79.40
32626;DHT22;19038;50.922;11.880;2022-08-20T00:51:22;21.00;79.60
32626;DHT22;19038;50.922;11.880;2022-08-20T00:56:15;21.00;80.00
32626;DHT22;19038;50.922;11.880;2022-08-20T01:01:15;21.00;79.70
32626;DHT22;19038;50.922;11.880;2022-08-20T01:06:15;21.00;79.60
32626;DHT22;19038;50.922;11.880;2022-08-20T01:11:15;20.90;79.60
32626;DHT22;19038;50.922;11.880;2022-08-20T01:16:19;20.90;79.70
32626;DHT22;19038;50.922;11.880;2022-08-20T01:21:15;21.00;79.80
32626;DHT22;19038;50.922;11.880;2022-08-20T01:31:17;20.90;79.60
32626;DHT22;19038;50.922;11.880;2022-08-20T01:36:16;20.90;79.90
32626;DHT22;19038;50.922;11.880;2022-08-20T01:41:21;20.90;80.10
32626;DHT22;19038;50.922;11.880;2022-08-20T01:46:16;20.90;80.00
32626;DHT22;19038;50.922;11.880;2022-08-20T01:51:17;20.90;80.10
32626;DHT22;19038;50.922;11.880;2022-08-20T01:56:16;20.90;80.20
32626;DHT22;19038;50.922;11.880;2022-08-20T02:06:15;20.90;80.60
32626;DHT22;19038;50.922;11.880;2022-08-20T02:11:15;20.90;80.40
32626;DHT22;19038;50.922;11.880;2022-08-20T02:16:15;20.80;80.40
32626;DHT22;19038;50.922;11.880;2022-08-20T02:21:15;20.80;80.40
32626;DHT22;19038;50.922;11.880;2022-08-20T02:26:15;20.80;80.50
32626;DHT22;19038;50.922;11.880;2022-08-20T02:31:16;20.80;80.70
32626;DHT22;19038;50.922;11.880;2022-08-20T02:36:15;20.80;80.70
32626;DHT22;19038;50.922;11.880;2022-08-20T02:41:15;20.80;81.00
32626;DHT22;19038;50.922;11.880;2022-08-20T02:46:16;20.80;80.80
32626;DHT22;19038;50.922;11.880;2022-08-20T02:51:15;20.80;80.90
32626;DHT22;19038;50.922;11.880;2022-08-20T02:56:15;20.80;80.70
32626;DHT22;19038;50.922;11.880;2022-08-20T03:01:15;20.80;80.90
32626;DHT22;19038;50.922;11.880;2022-08-20T03:06:15;20.80;81.20
32626;DHT22;19038;50.922;11.880;2022-08-20T03:11:15;20.80;81.00
32626;DHT22;19038;50.922;11.880;2022-08-20T03:16:15;20.80;80.60
32626;DHT22;19038;50.922;11.880;2022-08-20T03:21:15;20.80;80.70
32626;DHT22;19038;50.922;11.880;2022-08-20T03:26:15;20.80;80.60
32626;DHT22;19038;50.922;11.880;2022-08-20T03:31:15;20.80;80.90
32626;DHT22;19038;50.922;11.880;2022-08-20T03:36:15;20.80;81.00
32626;DHT22;19038;50.922;11.880;2022-08-20T03:41:15;20.80;81.30
32626;DHT22;19038;50.922;11.880;2022-08-20T03:46:15;20.80;81.40
32626;DHT22;19038;50.922;11.880;2022-08-20T03:51:15;20.70;81.80
32626;DHT22;19038;50.922;11.880;2022-08-20T03:56:15;20.70;81.90
32626;DHT22;19038;50.922;11.880;2022-08-20T04:01:15;20.70;81.60
32626;DHT22;19038;50.922;11.880;2022-08-20T04:06:15;20.70;81.50
32626;DHT22;19038;50.922;11.880;2022-08-20T04:11:15;20.70;81.40
32626;DHT22;19038;50.922;11.880;2022-08-20T04:16:15;20.70;81.60
32626;DHT22;19038;50.922;11.880;2022-08-20T04:21:15;20.60;81.80
32626;DHT22;19038;50.922;11.880;2022-08-20T04:26:15;20.60;82.20
32626;DHT22;19038;50.922;11.880;2022-08-20T04:31:15;20.60;81.70
32626;DHT22;19038;50.922;11.880;2022-08-20T04:36:15;20.70;81.50
32626;DHT22;19038;50.922;11.880;2022-08-20T04:41:15;20.70;81.40
32626;DHT22;19038;50.922;11.880;2022-08-20T04:46:15;20.70;81.30
32626;DHT22;19038;50.922;11.880;2022-08-20T04:51:15;20.70;81.60
32626;DHT22;19038;50.922;11.880;2022-08-20T04:56:15;20.70;82.00
32626;DHT22;19038;50.922;11.880;2022-08-20T05:01:15;20.70;81.70
32626;DHT22;19038;50.922;11.880;2022-08-20T05:06:15;20.70;81.30
32626;DHT22;19038;50.922;11.880;2022-08-20T05:11:15;20.70;81.60
32626;DHT22;19038;50.922;11.880;2022-08-20T05:16:15;20.70;82.10
32626;DHT22;19038;50.922;11.880;2022-08-20T05:21:15;20.70;81.90
32626;DHT22;19038;50.922;11.880;2022-08-20T05:26:15;20.70;81.60
32626;DHT22;19038;50.922;11.880;2022-08-20T05:31:15;20.70;81.50
32626;DHT22;19038;50.922;11.880;2022-08-20T05:36:15;20.70;81.80
32626;DHT22;19038;50.922;11.880;2022-08-20T05:41:15;20.70;81.80
32626;DHT22;19038;50.922;11.880;2022-08-20T05:46:15;20.70;82.20
32626;DHT22;19038;50.922;11.880;2022-08-20T05:51:15;20.70;82.10
32626;DHT22;19038;50.922;11.880;2022-08-20T05:56:15;20.70;82.30
32626;DHT22;19038;50.922;11.880;2022-08-20T06:01:15;20.70;81.90
32626;DHT22;19038;50.922;11.880;2022-08-20T06:06:15;20.80;81.40
32626;DHT22;19038;50.922;11.880;2022-08-20T06:11:15;20.80;81.50
32626;DHT22;19038;50.922;11.880;2022-08-20T06:16:15;20.80;82.00
32626;DHT22;19038;50.922;11.880;2022-08-20T06:21:15;20.80;82.20
32626;DHT22;19038;50.922;11.880;2022-08-20T06:26:15;20.80;82.50
32626;DHT22;19038;50.922;11.880;2022-08-20T06:31:15;20.80;82.50
32626;DHT22;19038;50.922;11.880;2022-08-20T06:36:15;20.90;82.60
32626;DHT22;19038;50.922;11.880;2022-08-20T06:41:15;20.90;82.10
32626;DHT22;19038;50.922;11.880;2022-08-20T06:46:15;20.90;82.10
32626;DHT22;19038;50.922;11.880;2022-08-20T06:51:15;20.90;82.60
32626;DHT22;19038;50.922;11.880;2022-08-20T06:56:15;20.90;83.10
32626;DHT22;19038;50.922;11.880;2022-08-20T07:01:15;20.90;83.40
32626;DHT22;19038;50.922;11.880;2022-08-20T07:06:15;20.90;83.50
32626;DHT22;19038;50.922;11.880;2022-08-20T07:11:15;20.90;84.20
32626;DHT22;19038;50.922;11.880;2022-08-20T07:16:15;20.90;83.60
32626;DHT22;19038;50.922;11.880;2022-08-20T07:21:15;21.00;83.60
32626;DHT22;19038;50.922;11.880;2022-08-20T07:26:15;21.00;84.10
32626;DHT22;19038;50.922;11.880;2022-08-20T07:31:15;21.00;84.20
32626;DHT22;19038;50.922;11.880;2022-08-20T07:36:15;21.10;84.20
32626;DHT22;19038;50.922;11.880;2022-08-20T07:41:15;21.10;84.10
32626;DHT22;19038;50.922;11.880;2022-08-20T07:46:16;21.10;84.00
32626;DHT22;19038;50.922;11.880;2022-08-20T07:51:17;21.20;83.50
32626;DHT22;19038;50.922;11.880;2022-08-20T07:53:30;21.20;83.30
32626;DHT22;19038;50.922;11.880;2022-08-20T07:58:30;21.20;83.90
32626;DHT22;19038;50.922;11.880;2022-08-20T08:03:30;21.30;84.40
32626;DHT22;19038;50.922;11.880;2022-08-20T08:08:30;21.30;84.60
32626;DHT22;19038;50.922;11.880;2022-08-20T08:13:30;21.30;84.20
32626;DHT22;19038;50.922;11.880;2022-08-20T08:18:34;21.40;84.40
32626;DHT22;19038;50.922;11.880;2022-08-20T08:23:30;21.50;84.10
32626;DHT22;19038;50.922;11.880;2022-08-20T08:28:30;21.50;84.00
32626;DHT22;19038;50.922;11.880;2022-08-20T08:33:30;21.60;84.10
32626;DHT22;19038;50.922;11.880;2022-08-20T08:38:30;21.60;84.10
32626;DHT22;19038;50.922;11.880;2022-08-20T08:43:30;21.60;83.50
32626;DHT22;19038;50.922;11.880;2022-08-20T08:48:31;21.60;84.00
32626;DHT22;19038;50.922;11.880;2022-08-20T08:53:33;21.70;84.30
32626;DHT22;19038;50.922;11.880;2022-08-20T08:58:30;21.70;83.90
32626;DHT22;19038;50.922;11.880;2022-08-20T09:03:30;21.70;83.40
32626;DHT22;19038;50.922;11.880;2022-08-20T09:08:35;21.80;84.30
32626;DHT22;19038;50.922;11.880;2022-08-20T09:13:30;21.80;83.70
32626;DHT22;19038;50.922;11.880;2022-08-20T09:18:30;21.80;83.40
32626;DHT22;19038;50.922;11.880;2022-08-20T09:23:30;21.90;82.90
32626;DHT22;19038;50.922;11.880;2022-08-20T09:28:30;21.90;84.50
32626;DHT22;19038;50.922;11.880;2022-08-20T09:33:30;22.00;83.40
32626;DHT22;19038;50.922;11.880;2022-08-20T09:38:30;22.00;84.50
32626;DHT22;19038;50.922;11.880;2022-08-20T09:43:30;22.10;84.40
32626;DHT22;19038;50.922;11.880;2022-08-20T09:48:30;22.10;84.80
32626;DHT22;19038;50.922;11.880;2022-08-20T09:53:30;22.20;84.00
32626;DHT22;19038;50.922;11.880;2022-08-20T10:03:29;22.30;84.40
32626;DHT22;19038;50.922;11.880;2022-08-20T10:08:30;22.40;83.30
32626;DHT22;19038;50.922;11.880;2022-08-20T10:13:30;22.40;82.90
32626;DHT22;19038;50.922;11.880;2022-08-20T10:18:30;22.40;82.00
32626;DHT22;19038;50.922;11.880;2022-08-20T10:23:30;22.50;82.40
32626;DHT22;19038;50.922;11.880;2022-08-20T10:28:30;22.50;81.80
32626;DHT22;19038;50.922;11.880;2022-08-20T10:33:30;22.60;81.40
32626;DHT22;19038;50.922;11.880;2022-08-20T10:38:30;22.60;81.70
32626;DHT22;19038;50.922;11.880;2022-08-20T10:43:30;22.60;81.70
32626;DHT22;19038;50.922;11.880;2022-08-20T10:48:30;22.70;81.60
32626;DHT22;19038;50.922;11.880;2022-08-20T10:53:30;22.70;81.50
32626;DHT22;19038;50.922;11.880;2022-08-20T10:58:30;22.80;81.40
32626;DHT22;19038;50.922;11.880;2022-08-20T11:03:30;22.90;81.50
32626;DHT22;19038;50.922;11.880;2022-08-20T11:08:30;22.90;82.00
32626;DHT22;19038;50.922;11.880;2022-08-20T11:13:30;22.90;81.60
32626;DHT22;19038;50.922;11.880;2022-08-20T11:18:30;22.90;81.30
32626;DHT22;19038;50.922;11.880;2022-08-20T11:23:30;23.00;80.90
32626;DHT22;19038;50.922;11.880;2022-08-20T11:28:30;23.00;81.10
32626;DHT22;19038;50.922;11.880;2022-08-20T11:33:30;23.00;80.60
32626;DHT22;19038;50.922;11.880;2022-08-20T11:38:30;23.00;80.90
32626;DHT22;19038;50.922;11.880;2022-08-20T11:43:30;23.00;80.70
32626;DHT22;19038;50.922;11.880;2022-08-20T11:48:30;23.00;80.40
32626;DHT22;19038;50.922;11.880;2022-08-20T11:53:30;23.10;80.00
32626;DHT22;19038;50.922;11.880;2022-08-20T11:58:30;23.10;80.20
32626;DHT22;19038;50.922;11.880;2022-08-20T12:03:30;23.20;79.20
32626;DHT22;19038;50.922;11.880;2022-08-20T12:08:30;23.20;79.00
32626;DHT22;19038;50.922;11.880;2022-08-20T12:13:32;23.20;79.00
32626;DHT22;19038;50.922;11.880;2022-08-20T12:18:30;23.20;79.20
32626;DHT22;19038;50.922;11.880;2022-08-20T12:23:30;23.20;78.70
32626;DHT22;19038;50.922;11.880;2022-08-20T12:28:30;23.30;78.30
32626;DHT22;19038;50.922;11.880;2022-08-20T12:33:30;23.30;78.90
32626;DHT22;19038;50.922;11.880;2022-08-20T12:38:30;23.30;77.10
32626;DHT22;19038;50.922;11.880;2022-08-20T12:43:30;23.40;75.60
32626;DHT22;19038;50.922;11.880;2022-08-20T12:48:30;23.40;76.50
32626;DHT22;19038;50.922;11.880;2022-08-20T12:53:30;23.40;76.50
32626;DHT22;19038;50.922;11.880;2022-08-20T12:58:30;23.40;74.40
32626;DHT22;19038;50.922;11.880;2022-08-20T13:03:30;23.40;73.70
32626;DHT22;19038;50.922;11.880;2022-08-20T13:08:30;23.40;73.40
32626;DHT22;19038;50.922;11.880;2022-08-20T13:13:30;23.50;73.20
32626;DHT22;19038;50.922;11.880;2022-08-20T13:18:30;23.50;73.20
32626;DHT22;19038;50.922;11.880;2022-08-20T13:23:30;23.50;72.80
32626;DHT22;19038;50.922;11.880;2022-08-20T13:28:30;23.50;72.60
32626;DHT22;19038;50.922;11.880;2022-08-20T13:33:30;23.50;72.20
32626;DHT22;19038;50.922;11.880;2022-08-20T13:38:30;23.50;72.00
32626;DHT22;19038;50.922;11.880;2022-08-20T13:43:30;23.50;71.30
32626;DHT22;19038;50.922;11.880;2022-08-20T13:48:30;23.50;71.00
32626;DHT22;19038;50.922;11.880;2022-08-20T13:53:30;23.50;71.60
32626;DHT22;19038;50.922;11.880;2022-08-20T13:58:30;23.40;70.70
32626;DHT22;19038;50.922;11.880;2022-08-20T14:03:30;23.50;71.40
32626;DHT22;19038;50.922;11.880;2022-08-20T14:08:30;23.60;71.10
32626;DHT22;19038;50.922;11.880;2022-08-20T14:13:30;23.70;71.00
32626;DHT22;19038;50.922;11.880;2022-08-20T14:18:30;23.60;70.90
32626;DHT22;19038;50.922;11.880;2022-08-20T14:23:30;23.60;70.40
32626;DHT22;19038;50.922;11.880;2022-08-20T14:28:30;23.70;71.10
32626;DHT22;19038;50.922;11.880;2022-08-20T14:33:30;23.70;71.00
32626;DHT22;19038;50.922;11.880;2022-08-20T14:38:30;23.80;71.10
32626;DHT22;19038;50.922;11.880;2022-08-20T14:43:30;23.80;70.30
32626;DHT22;19038;50.922;11.880;2022-08-20T14:48:30;23.80;70.40
32626;DHT22;19038;50.922;11.880;2022-08-20T14:53:30;23.80;70.50
32626;DHT22;19038;50.922;11.880;2022-08-20T14:58:30;23.80;71.10
32626;DHT22;19038;50.922;11.880;2022-08-20T15:03:30;23.70;70.40
32626;DHT22;19038;50.922;11.880;2022-08-20T15:08:30;23.70;70.40
32626;DHT22;19038;50.922;11.880;2022-08-20T15:13:30;23.70;70.10
32626;DHT22;19038;50.922;11.880;2022-08-20T15:18:30;23.60;70.90
32626;DHT22;19038;50.922;11.880;2022-08-20T15:23:30;23.70;71.00
32626;DHT22;19038;50.922;11.880;2022-08-20T15:28:30;23.70;70.50
32626;DHT22;19038;50.922;11.880;2022-08-20T15:33:30;23.70;70.30
32626;DHT22;19038;50.922;11.880;2022-08-20T15:38:30;23.80;70.60
32626;DHT22;19038;50.922;11.880;2022-08-20T15:43:30;23.80;70.00
32626;DHT22;19038;50.922;11.880;2022-08-20T15:48:32;23.80;70.40
32626;DHT22;19038;50.922;11.880;2022-08-20T15:53:32;23.80;70.20
32626;DHT22;19038;50.922;11.880;2022-08-20T15:58:34;23.90;71.10
32626;DHT22;19038;50.922;11.880;2022-08-20T16:03:34;24.00;69.40
32626;DHT22;19038;50.922;11.880;2022-08-20T16:13:33;24.10;69.50
32626;DHT22;19038;50.922;11.880;2022-08-20T16:18:32;24.10;68.80
32626;DHT22;19038;50.922;11.880;2022-08-20T16:23:31;24.20;69.10
32626;DHT22;19038;50.922;11.880;2022-08-20T16:28:33;24.20;69.40
32626;DHT22;19038;50.922;11.880;2022-08-20T16:33:33;24.20;69.40
32626;DHT22;19038;50.922;11.880;2022-08-20T16:38:35;24.20;69.80
32626;DHT22;19038;50.922;11.880;2022-08-20T16:43:31;24.20;69.90
32626;DHT22;19038;50.922;11.880;2022-08-20T16:48:33;24.20;69.30
32626;DHT22;19038;50.922;11.880;2022-08-20T16:53:30;24.20;70.30
32626;DHT22;19038;50.922;11.880;2022-08-20T16:58:30;24.10;70.60
32626;DHT22;19038;50.922;11.880;2022-08-20T17:03:30;24.20;70.50
32626;DHT22;19038;50.922;11.880;2022-08-20T17:08:31;24.20;70.30
32626;DHT22;19038;50.922;11.880;2022-08-20T17:13:31;24.20;70.60
32626;DHT22;19038;50.922;11.880;2022-08-20T17:18:31;24.20;71.00
32626;DHT22;19038;50.922;11.880;2022-08-20T17:23:32;24.10;71.20
32626;DHT22;19038;50.922;11.880;2022-08-20T17:28:30;24.10;71.60
32626;DHT22;19038;50.922;11.880;2022-08-20T17:33:32;24.10;71.70
32626;DHT22;19038;50.922;11.880;2022-08-20T17:38:36;24.00;71.90
32626;DHT22;19038;50.922;11.880;2022-08-20T17:43:31;24.00;72.40
32626;DHT22;19038;50.922;11.880;2022-08-20T17:53:31;24.00;72.20
32626;DHT22;19038;50.922;11.880;2022-08-20T17:58:36;24.00;72.30
32626;DHT22;19038;50.922;11.880;2022-08-20T18:03:30;23.90;72.20
32626;DHT22;19038;50.922;11.880;2022-08-20T18:08:34;23.90;72.60
32626;DHT22;19038;50.922;11.880;2022-08-20T18:18:37;23.80;73.30
32626;DHT22;19038;50.922;11.880;2022-08-20T18:23:33;23.80;73.70
32626;DHT22;19038;50.922;11.880;2022-08-20T18:33:33;23.70;73.70
32626;DHT22;19038;50.922;11.880;2022-08-20T18:38:30;23.60;73.40
32626;DHT22;19038;50.922;11.880;2022-08-20T18:43:30;23.60;73.60
32626;DHT22;19038;50.922;11.880;2022-08-20T18:48:30;23.50;74.00
32626;DHT22;19038;50.922;11.880;2022-08-20T18:53:31;23.50;74.00
32626;DHT22;19038;50.922;11.880;2022-08-20T18:58:35;23.40;74.10
32626;DHT22;19038;50.922;11.880;2022-08-20T19:03:40;23.40;74.50
32626;DHT22;19038;50.922;11.880;2022-08-20T19:08:36;23.40;74.80
32626;DHT22;19038;50.922;11.880;2022-08-20T19:23:32;23.20;75.00
32626;DHT22;19038;50.922;11.880;2022-08-20T19:28:31;23.10;75.20
32626;DHT22;19038;50.922;11.880;2022-08-20T19:33:30;23.10;75.50
32626;DHT22;19038;50.922;11.880;2022-08-20T19:38:30;23.00;75.50
32626;DHT22;19038;50.922;11.880;2022-08-20T19:43:30;23.00;75.70
32626;DHT22;19038;50.922;11.880;2022-08-20T19:53:32;22.80;75.20
32626;DHT22;19038;50.922;11.880;2022-08-20T19:58:31;22.80;76.20
32626;DHT22;19038;50.922;11.880;2022-08-20T20:03:35;22.70;76.10
32626;DHT22;19038;50.922;11.880;2022-08-20T20:13:30;22.50;76.40
32626;DHT22;19038;50.922;11.880;2022-08-20T20:18:32;22.50;76.40
32626;DHT22;19038;50.922;11.880;2022-08-20T20:23:30;22.30;76.60
32626;DHT22;19038;50.922;11.880;2022-08-20T20:28:40;22.20;76.80
32626;DHT22;19038;50.922;11.880;2022-08-20T20:33:31;22.20;77.10
32626;DHT22;19038;50.922;11.880;2022-08-20T20:38:30;22.10;77.60
32626;DHT22;19038;50.922;11.880;2022-08-20T20:43:33;22.10;77.50
32626;DHT22;19038;50.922;11.880;2022-08-20T20:48:38;22.10;77.40
32626;DHT22;19038;50.922;11.880;2022-08-20T20:53:33;22.10;77.60
32626;DHT22;19038;50.922;11.880;2022-08-20T20:58:30;22.10;77.90
32626;DHT22;19038;50.922;11.880;2022-08-20T21:03:30;22.10;77.80
32626;DHT22;19038;50.922;11.880;2022-08-20T21:08:30;22.10;77.80
32626;DHT22;19038;50.922;11.880;2022-08-20T21:13:30;22.10;77.90
32626;DHT22;19038;50.922;11.880;2022-08-20T21:18:30;22.10;78.00
32626;DHT22;19038;50.922;11.880;2022-08-20T21:23:30;22.10;78.10
32626;DHT22;19038;50.922;11.880;2022-08-20T21:28:30;22.10;78.20
32626;DHT22;19038;50.922;11.880;2022-08-20T21:33:30;22.00;78.40
32626;DHT22;19038;50.922;11.880;2022-08-20T21:38:30;22.00;78.40
32626;DHT22;19038;50.922;11.880;2022-08-20T21:43:30;22.00;78.40
32626;DHT22;19038;50.922;11.880;2022-08-20T21:48:30;22.00;78.50
32626;DHT22;19038;50.922;11.880;2022-08-20T21:53:30;22.00;78.60
32626;DHT22;19038;50.922;11.880;2022-08-20T21:58:30;22.00;78.70
32626;DHT22;19038;50.922;11.880;2022-08-20T22:03:32;22.00;78.50
32626;DHT22;19038;50.922;11.880;2022-08-20T22:08:30;21.90;78.50
32626;DHT22;19038;50.922;11.880;2022-08-20T22:13:31;21.90;78.40
32626;DHT22;19038;50.922;11.880;2022-08-20T22:18:30;21.90;78.40
32626;DHT22;19038;50.922;11.880;2022-08-20T22:23:30;21.90;78.10
32626;DHT22;19038;50.922;11.880;2022-08-20T22:28:30;21.90;78.70
32626;DHT22;19038;50.922;11.880;2022-08-20T22:33:30;21.80;79.70
32626;DHT22;19038;50.922;11.880;2022-08-20T22:38:30;21.80;79.00
32626;DHT22;19038;50.922;11.880;2022-08-20T22:43:30;21.70;79.20
32626;DHT22;19038;50.922;11.880;2022-08-20T22:48:30;21.70;79.20
32626;DHT22;19038;50.922;11.880;2022-08-20T22:53:30;21.70;79.10
32626;DHT22;19038;50.922;11.880;2022-08-20T22:58:30;21.70;79.30
32626;DHT22;19038;50.922;11.880;2022-08-20T23:03:30;21.70;79.10
32626;DHT22;19038;50.922;11.880;2022-08-20T23:08:30;21.70;79.40
32626;DHT22;19038;50.922;11.880;2022-08-20T23:13:30;21.70;79.30
32626;DHT22;19038;50.922;11.880;2022-08-20T23:18:30;21.70;79.30
32626;DHT22;19038;50.922;11.880;2022-08-20T23:23:30;21.70;78.90
32626;DHT22;19038;50.922;11.880;2022-08-20T23:28:30;21.70;79.10
32626;DHT22;19038;50.922;11.880;2022-08-20T23:33:30;21.70;79.30
32626;DHT22;19038;50.922;11.880;2022-08-20T23:38:30;21.70;79.30
32626;DHT22;19038;50.922;11.880;2022-08-20T23:43:30;21.60;79.50
32626;DHT22;19038;50.922;11.880;2022-08-20T23:48:30;21.60;79.50
32626;DHT22;19038;50.922;11.880;2022-08-20T23:53:30;21.60;79.60
32626;DHT22;19038;50.922;11.880;2022-08-20T23:58:30;21.60;79.60
